sensor_id;sensor_type;location;lat;lon;timestamp;P1;durP1;ratioP1;P2;durP2;ratioP2
4377;SDS011;2203;53.686;9.994;2023-04-25T00:02:09;17.97;;;5.67;;
4377;SDS011;2203;53.686;9.994;2023-04-25T00:04:35;23.60;;;5.50;;
4377;SDS011;2203;53.686;9.994;2023-04-25T00:07:02;24.03;;;5.60;;
4377;SDS011;2203;53.686;9.994;2023-04-25T00:09:28;24.43;;;5.00;;
4377;SDS011;2203;53.686;9.994;2023-04-25T00:11:54;27.30;;;4.70;;
4377;SDS011;2203;53.686;9.994;2023-04-25T00:14:19;21.23;;;4.10;;
4377;SDS011;2203;53.686;9.994;2023-04-25T00:16:44;24.60;;;3.90;;
4377;SDS011;2203;53.686;9.994;2023-04-25T00:19:10;24.77;;;4.27;;
4377;SDS011;2203;53.686;9.994;2023-04-25T00:21:36;29.53;;;4.40;;
4377;SDS011;2203;53.686;9.994;2023-04-25T00:24:05;29.53;;;4.37;;
4377;SDS011;2203;53.686;9.994;2023-04-25T00:26:31;25.30;;;4.33;;
4377;SDS011;2203;53.686;9.994;2023-04-25T00:28:56;26.10;;;3.90;;
4377;SDS011;2203;53.686;9.994;2023-04-25T00:31:22;22.83;;;3.67;;
4377;SDS011;2203;53.686;9.994;2023-04-25T00:33:47;30.93;;;4.13;;
4377;SDS011;2203;53.686;9.994;2023-04-25T00:36:13;29.07;;;4.80;;
4377;SDS011;2203;53.686;9.994;2023-04-25T00:38:38;31.07;;;4.40;;
4377;SDS011;2203;53.686;9.994;2023-04-25T00:41:05;33.93;;;4.50;;
4377;SDS011;2203;53.686;9.994;2023-04-25T00:43:32;25.73;;;3.33;;
4377;SDS011;2203;53.686;9.994;2023-04-25T00:45:57;28.03;;;4.37;;
4377;SDS011;2203;53.686;9.994;2023-04-25T00:48:27;46.30;;;5.10;;
4377;SDS011;2203;53.686;9.994;2023-04-25T00:50:59;25.73;;;5.23;;
4377;SDS011;2203;53.686;9.994;2023-04-25T00:53:25;26.27;;;4.17;;
4377;SDS011;2203;53.686;9.994;2023-04-25T00:55:52;41.07;;;4.90;;
4377;SDS011;2203;53.686;9.994;2023-04-25T00:58:18;23.30;;;4.17;;
4377;SDS011;2203;53.686;9.994;2023-04-25T01:00:45;40.47;;;6.23;;
4377;SDS011;2203;53.686;9.994;2023-04-25T01:03:12;39.93;;;5.00;;
4377;SDS011;2203;53.686;9.994;2023-04-25T01:05:38;31.13;;;4.23;;
4377;SDS011;2203;53.686;9.994;2023-04-25T01:08:05;24.33;;;4.10;;
4377;SDS011;2203;53.686;9.994;2023-04-25T01:10:31;32.77;;;4.37;;
4377;SDS011;2203;53.686;9.994;2023-04-25T01:12:56;32.23;;;4.60;;
4377;SDS011;2203;53.686;9.994;2023-04-25T01:15:22;29.00;;;4.37;;
4377;SDS011;2203;53.686;9.994;2023-04-25T01:17:47;35.53;;;6.00;;
4377;SDS011;2203;53.686;9.994;2023-04-25T01:20:14;29.90;;;4.80;;
4377;SDS011;2203;53.686;9.994;2023-04-25T01:22:40;29.50;;;5.20;;
4377;SDS011;2203;53.686;9.994;2023-04-25T01:25:05;45.67;;;5.77;;
4377;SDS011;2203;53.686;9.994;2023-04-25T01:27:32;31.67;;;4.90;;
4377;SDS011;2203;53.686;9.994;2023-04-25T01:29:57;21.90;;;4.13;;
4377;SDS011;2203;53.686;9.994;2023-04-25T01:32:23;20.80;;;3.63;;
4377;SDS011;2203;53.686;9.994;2023-04-25T01:34:49;50.00;;;6.33;;
4377;SDS011;2203;53.686;9.994;2023-04-25T01:37:14;33.63;;;5.30;;
4377;SDS011;2203;53.686;9.994;2023-04-25T01:39:41;24.97;;;5.33;;
4377;SDS011;2203;53.686;9.994;2023-04-25T01:42:06;41.20;;;5.40;;
4377;SDS011;2203;53.686;9.994;2023-04-25T01:44:32;32.43;;;4.73;;
4377;SDS011;2203;53.686;9.994;2023-04-25T01:46:57;29.67;;;5.20;;
4377;SDS011;2203;53.686;9.994;2023-04-25T01:49:23;39.70;;;4.77;;
4377;SDS011;2203;53.686;9.994;2023-04-25T01:51:48;38.63;;;7.47;;
4377;SDS011;2203;53.686;9.994;2023-04-25T01:54:14;28.50;;;4.83;;
4377;SDS011;2203;53.686;9.994;2023-04-25T01:56:39;31.80;;;4.73;;
4377;SDS011;2203;53.686;9.994;2023-04-25T01:59:05;32.37;;;4.90;;
4377;SDS011;2203;53.686;9.994;2023-04-25T02:01:31;32.70;;;5.10;;
4377;SDS011;2203;53.686;9.994;2023-04-25T02:03:56;25.07;;;4.60;;
4377;SDS011;2203;53.686;9.994;2023-04-25T02:06:22;31.30;;;4.03;;
4377;SDS011;2203;53.686;9.994;2023-04-25T02:08:47;31.57;;;4.77;;
4377;SDS011;2203;53.686;9.994;2023-04-25T02:11:13;37.83;;;5.43;;
4377;SDS011;2203;53.686;9.994;2023-04-25T02:13:38;25.80;;;5.47;;
4377;SDS011;2203;53.686;9.994;2023-04-25T02:16:03;27.77;;;4.50;;
4377;SDS011;2203;53.686;9.994;2023-04-25T02:18:29;24.73;;;4.70;;
4377;SDS011;2203;53.686;9.994;2023-04-25T02:20:56;25.80;;;4.00;;
4377;SDS011;2203;53.686;9.994;2023-04-25T02:23:22;31.67;;;4.47;;
4377;SDS011;2203;53.686;9.994;2023-04-25T02:25:48;24.43;;;4.20;;
4377;SDS011;2203;53.686;9.994;2023-04-25T02:28:13;30.80;;;4.53;;
4377;SDS011;2203;53.686;9.994;2023-04-25T02:30:39;22.43;;;4.40;;
4377;SDS011;2203;53.686;9.994;2023-04-25T02:33:04;30.10;;;4.10;;
4377;SDS011;2203;53.686;9.994;2023-04-25T02:35:30;38.03;;;5.30;;
4377;SDS011;2203;53.686;9.994;2023-04-25T02:37:55;27.53;;;4.20;;
4377;SDS011;2203;53.686;9.994;2023-04-25T02:40:20;42.13;;;4.70;;
4377;SDS011;2203;53.686;9.994;2023-04-25T02:42:46;31.77;;;5.00;;
4377;SDS011;2203;53.686;9.994;2023-04-25T02:45:11;32.87;;;5.30;;
4377;SDS011;2203;53.686;9.994;2023-04-25T02:47:37;30.30;;;4.43;;
4377;SDS011;2203;53.686;9.994;2023-04-25T02:50:02;24.53;;;4.10;;
4377;SDS011;2203;53.686;9.994;2023-04-25T02:52:28;37.17;;;4.90;;
4377;SDS011;2203;53.686;9.994;2023-04-25T02:54:53;21.73;;;3.77;;
4377;SDS011;2203;53.686;9.994;2023-04-25T02:57:19;20.57;;;4.60;;
4377;SDS011;2203;53.686;9.994;2023-04-25T02:59:44;43.07;;;4.53;;
4377;SDS011;2203;53.686;9.994;2023-04-25T03:02:10;41.87;;;5.00;;
4377;SDS011;2203;53.686;9.994;2023-04-25T03:04:35;23.50;;;4.90;;
4377;SDS011;2203;53.686;9.994;2023-04-25T03:07:00;26.90;;;3.43;;
4377;SDS011;2203;53.686;9.994;2023-04-25T03:09:26;34.77;;;4.57;;
4377;SDS011;2203;53.686;9.994;2023-04-25T03:11:51;28.63;;;4.20;;
4377;SDS011;2203;53.686;9.994;2023-04-25T03:14:17;25.37;;;4.37;;
4377;SDS011;2203;53.686;9.994;2023-04-25T03:16:42;31.17;;;4.00;;
4377;SDS011;2203;53.686;9.994;2023-04-25T03:19:08;38.90;;;5.00;;
4377;SDS011;2203;53.686;9.994;2023-04-25T03:21:34;37.63;;;5.20;;
4377;SDS011;2203;53.686;9.994;2023-04-25T03:24:00;29.67;;;4.27;;
4377;SDS011;2203;53.686;9.994;2023-04-25T03:26:27;38.70;;;4.43;;
4377;SDS011;2203;53.686;9.994;2023-04-25T03:28:53;28.67;;;4.07;;
4377;SDS011;2203;53.686;9.994;2023-04-25T03:31:18;20.33;;;3.50;;
4377;SDS011;2203;53.686;9.994;2023-04-25T03:33:43;29.63;;;4.40;;
4377;SDS011;2203;53.686;9.994;2023-04-25T03:36:09;24.97;;;4.23;;
4377;SDS011;2203;53.686;9.994;2023-04-25T03:38:34;21.53;;;4.07;;
4377;SDS011;2203;53.686;9.994;2023-04-25T03:41:00;29.30;;;4.13;;
4377;SDS011;2203;53.686;9.994;2023-04-25T03:43:26;17.20;;;3.50;;
4377;SDS011;2203;53.686;9.994;2023-04-25T03:45:51;28.77;;;4.20;;
4377;SDS011;2203;53.686;9.994;2023-04-25T03:48:17;27.07;;;5.07;;
4377;SDS011;2203;53.686;9.994;2023-04-25T03:50:46;33.20;;;4.63;;
4377;SDS011;2203;53.686;9.994;2023-04-25T03:53:14;29.13;;;4.10;;
4377;SDS011;2203;53.686;9.994;2023-04-25T03:55:39;36.13;;;4.47;;
4377;SDS011;2203;53.686;9.994;2023-04-25T03:58:05;28.43;;;3.87;;
4377;SDS011;2203;53.686;9.994;2023-04-25T04:00:30;27.67;;;4.40;;
4377;SDS011;2203;53.686;9.994;2023-04-25T04:02:56;20.37;;;5.57;;
4377;SDS011;2203;53.686;9.994;2023-04-25T04:05:22;26.00;;;4.80;;
4377;SDS011;2203;53.686;9.994;2023-04-25T04:07:48;27.37;;;3.67;;
4377;SDS011;2203;53.686;9.994;2023-04-25T04:10:13;24.63;;;3.63;;
4377;SDS011;2203;53.686;9.994;2023-04-25T04:12:39;27.17;;;3.73;;
4377;SDS011;2203;53.686;9.994;2023-04-25T04:15:04;34.87;;;3.60;;
4377;SDS011;2203;53.686;9.994;2023-04-25T04:17:31;24.87;;;3.80;;
4377;SDS011;2203;53.686;9.994;2023-04-25T04:19:56;29.57;;;3.93;;
4377;SDS011;2203;53.686;9.994;2023-04-25T04:22:22;29.27;;;3.80;;
4377;SDS011;2203;53.686;9.994;2023-04-25T04:24:47;20.17;;;3.73;;
4377;SDS011;2203;53.686;9.994;2023-04-25T04:27:15;28.03;;;3.67;;
4377;SDS011;2203;53.686;9.994;2023-04-25T04:29:42;25.37;;;4.07;;
4377;SDS011;2203;53.686;9.994;2023-04-25T04:32:08;31.73;;;4.80;;
4377;SDS011;2203;53.686;9.994;2023-04-25T04:34:33;15.27;;;3.30;;
4377;SDS011;2203;53.686;9.994;2023-04-25T04:36:59;20.10;;;3.97;;
4377;SDS011;2203;53.686;9.994;2023-04-25T04:39:25;32.00;;;4.60;;
4377;SDS011;2203;53.686;9.994;2023-04-25T04:41:50;22.77;;;3.77;;
4377;SDS011;2203;53.686;9.994;2023-04-25T04:44:16;30.63;;;5.50;;
4377;SDS011;2203;53.686;9.994;2023-04-25T04:46:41;30.63;;;3.53;;
4377;SDS011;2203;53.686;9.994;2023-04-25T04:49:10;21.00;;;3.50;;
4377;SDS011;2203;53.686;9.994;2023-04-25T04:51:37;23.63;;;3.60;;
4377;SDS011;2203;53.686;9.994;2023-04-25T04:54:03;35.13;;;5.20;;
4377;SDS011;2203;53.686;9.994;2023-04-25T04:56:29;33.23;;;3.67;;
4377;SDS011;2203;53.686;9.994;2023-04-25T04:58:56;23.33;;;3.80;;
4377;SDS011;2203;53.686;9.994;2023-04-25T05:01:23;21.30;;;4.03;;
4377;SDS011;2203;53.686;9.994;2023-04-25T05:03:50;23.60;;;3.33;;
4377;SDS011;2203;53.686;9.994;2023-04-25T05:06:16;14.53;;;2.80;;
4377;SDS011;2203;53.686;9.994;2023-04-25T05:08:42;17.60;;;3.80;;
4377;SDS011;2203;53.686;9.994;2023-04-25T05:11:08;28.97;;;5.17;;
4377;SDS011;2203;53.686;9.994;2023-04-25T05:13:34;17.70;;;3.23;;
4377;SDS011;2203;53.686;9.994;2023-04-25T05:15:59;36.07;;;4.60;;
4377;SDS011;2203;53.686;9.994;2023-04-25T05:18:24;24.30;;;3.70;;
4377;SDS011;2203;53.686;9.994;2023-04-25T05:20:50;22.27;;;3.27;;
4377;SDS011;2203;53.686;9.994;2023-04-25T05:23:15;18.00;;;2.93;;
4377;SDS011;2203;53.686;9.994;2023-04-25T05:25:41;18.73;;;3.30;;
4377;SDS011;2203;53.686;9.994;2023-04-25T05:28:06;18.10;;;2.60;;
4377;SDS011;2203;53.686;9.994;2023-04-25T05:30:32;14.30;;;3.13;;
4377;SDS011;2203;53.686;9.994;2023-04-25T05:32:57;31.57;;;6.43;;
4377;SDS011;2203;53.686;9.994;2023-04-25T05:35:22;22.50;;;3.40;;
4377;SDS011;2203;53.686;9.994;2023-04-25T05:37:48;15.73;;;2.67;;
4377;SDS011;2203;53.686;9.994;2023-04-25T05:40:13;14.57;;;2.90;;
4377;SDS011;2203;53.686;9.994;2023-04-25T05:42:39;19.00;;;3.67;;
4377;SDS011;2203;53.686;9.994;2023-04-25T05:45:04;14.07;;;3.30;;
4377;SDS011;2203;53.686;9.994;2023-04-25T05:47:30;20.17;;;3.30;;
4377;SDS011;2203;53.686;9.994;2023-04-25T05:49:56;16.13;;;3.03;;
4377;SDS011;2203;53.686;9.994;2023-04-25T05:52:21;12.97;;;2.43;;
4377;SDS011;2203;53.686;9.994;2023-04-25T05:54:47;11.40;;;2.80;;
4377;SDS011;2203;53.686;9.994;2023-04-25T05:57:22;32.77;;;4.70;;
4377;SDS011;2203;53.686;9.994;2023-04-25T05:59:48;21.37;;;3.43;;
4377;SDS011;2203;53.686;9.994;2023-04-25T06:02:14;22.17;;;3.03;;
4377;SDS011;2203;53.686;9.994;2023-04-25T06:04:39;14.27;;;2.33;;
4377;SDS011;2203;53.686;9.994;2023-04-25T06:07:05;21.23;;;3.20;;
4377;SDS011;2203;53.686;9.994;2023-04-25T06:09:30;26.03;;;3.33;;
4377;SDS011;2203;53.686;9.994;2023-04-25T06:11:55;15.63;;;3.33;;
4377;SDS011;2203;53.686;9.994;2023-04-25T06:14:21;24.53;;;3.67;;
4377;SDS011;2203;53.686;9.994;2023-04-25T06:16:46;11.80;;;3.10;;
4377;SDS011;2203;53.686;9.994;2023-04-25T06:19:12;14.97;;;3.87;;
4377;SDS011;2203;53.686;9.994;2023-04-25T06:21:37;18.87;;;2.83;;
4377;SDS011;2203;53.686;9.994;2023-04-25T06:24:02;19.90;;;4.00;;
4377;SDS011;2203;53.686;9.994;2023-04-25T06:26:28;27.70;;;3.30;;
4377;SDS011;2203;53.686;9.994;2023-04-25T06:28:53;18.13;;;3.23;;
4377;SDS011;2203;53.686;9.994;2023-04-25T06:31:19;25.87;;;2.97;;
4377;SDS011;2203;53.686;9.994;2023-04-25T06:33:44;27.10;;;3.03;;
4377;SDS011;2203;53.686;9.994;2023-04-25T06:36:10;23.90;;;3.23;;
4377;SDS011;2203;53.686;9.994;2023-04-25T06:38:35;20.07;;;3.53;;
4377;SDS011;2203;53.686;9.994;2023-04-25T06:41:01;33.53;;;4.60;;
4377;SDS011;2203;53.686;9.994;2023-04-25T06:43:26;20.33;;;3.50;;
4377;SDS011;2203;53.686;9.994;2023-04-25T06:45:51;28.33;;;3.90;;
4377;SDS011;2203;53.686;9.994;2023-04-25T06:48:17;23.67;;;4.00;;
4377;SDS011;2203;53.686;9.994;2023-04-25T06:50:42;25.03;;;3.40;;
4377;SDS011;2203;53.686;9.994;2023-04-25T06:53:08;21.47;;;3.60;;
4377;SDS011;2203;53.686;9.994;2023-04-25T06:55:33;32.10;;;3.10;;
4377;SDS011;2203;53.686;9.994;2023-04-25T06:57:59;19.20;;;3.77;;
4377;SDS011;2203;53.686;9.994;2023-04-25T07:00:25;21.40;;;3.30;;
4377;SDS011;2203;53.686;9.994;2023-04-25T07:02:51;24.40;;;3.03;;
4377;SDS011;2203;53.686;9.994;2023-04-25T07:05:16;12.63;;;4.13;;
4377;SDS011;2203;53.686;9.994;2023-04-25T07:07:42;28.87;;;4.23;;
4377;SDS011;2203;53.686;9.994;2023-04-25T07:10:07;22.87;;;2.47;;
4377;SDS011;2203;53.686;9.994;2023-04-25T07:12:33;18.53;;;4.43;;
4377;SDS011;2203;53.686;9.994;2023-04-25T07:14:58;15.50;;;2.17;;
4377;SDS011;2203;53.686;9.994;2023-04-25T07:17:23;14.27;;;2.40;;
4377;SDS011;2203;53.686;9.994;2023-04-25T07:19:49;9.70;;;2.20;;
4377;SDS011;2203;53.686;9.994;2023-04-25T07:22:14;16.73;;;2.83;;
4377;SDS011;2203;53.686;9.994;2023-04-25T07:24:40;4.50;;;1.53;;
4377;SDS011;2203;53.686;9.994;2023-04-25T07:27:05;20.33;;;2.20;;
4377;SDS011;2203;53.686;9.994;2023-04-25T07:29:31;12.80;;;1.93;;
4377;SDS011;2203;53.686;9.994;2023-04-25T07:31:56;17.83;;;4.50;;
4377;SDS011;2203;53.686;9.994;2023-04-25T07:34:22;12.83;;;2.63;;
4377;SDS011;2203;53.686;9.994;2023-04-25T07:36:47;21.60;;;2.57;;
4377;SDS011;2203;53.686;9.994;2023-04-25T07:39:13;14.27;;;2.53;;
4377;SDS011;2203;53.686;9.994;2023-04-25T07:41:38;11.53;;;2.60;;
4377;SDS011;2203;53.686;9.994;2023-04-25T07:44:03;16.83;;;2.27;;
4377;SDS011;2203;53.686;9.994;2023-04-25T07:46:29;10.70;;;2.47;;
4377;SDS011;2203;53.686;9.994;2023-04-25T07:48:54;21.63;;;3.40;;
4377;SDS011;2203;53.686;9.994;2023-04-25T07:51:20;13.17;;;2.57;;
4377;SDS011;2203;53.686;9.994;2023-04-25T07:53:47;20.40;;;2.90;;
4377;SDS011;2203;53.686;9.994;2023-04-25T07:56:12;23.27;;;3.57;;
4377;SDS011;2203;53.686;9.994;2023-04-25T07:58:38;23.07;;;3.50;;
4377;SDS011;2203;53.686;9.994;2023-04-25T08:01:03;20.47;;;2.77;;
4377;SDS011;2203;53.686;9.994;2023-04-25T08:03:29;27.23;;;3.20;;
4377;SDS011;2203;53.686;9.994;2023-04-25T08:05:54;16.53;;;3.20;;
4377;SDS011;2203;53.686;9.994;2023-04-25T08:08:20;22.07;;;3.17;;
4377;SDS011;2203;53.686;9.994;2023-04-25T08:10:46;26.93;;;3.47;;
4377;SDS011;2203;53.686;9.994;2023-04-25T08:13:13;16.83;;;3.30;;
4377;SDS011;2203;53.686;9.994;2023-04-25T08:15:38;14.03;;;2.43;;
4377;SDS011;2203;53.686;9.994;2023-04-25T08:18:04;11.00;;;1.77;;
4377;SDS011;2203;53.686;9.994;2023-04-25T08:20:29;16.00;;;2.70;;
4377;SDS011;2203;53.686;9.994;2023-04-25T08:22:55;14.57;;;2.50;;
4377;SDS011;2203;53.686;9.994;2023-04-25T08:25:20;19.33;;;1.80;;
4377;SDS011;2203;53.686;9.994;2023-04-25T08:27:46;16.07;;;3.33;;
4377;SDS011;2203;53.686;9.994;2023-04-25T08:30:11;16.37;;;2.33;;
4377;SDS011;2203;53.686;9.994;2023-04-25T08:32:37;22.73;;;2.47;;
4377;SDS011;2203;53.686;9.994;2023-04-25T08:35:05;11.10;;;2.43;;
4377;SDS011;2203;53.686;9.994;2023-04-25T08:37:31;11.33;;;2.60;;
4377;SDS011;2203;53.686;9.994;2023-04-25T08:39:57;15.00;;;2.17;;
4377;SDS011;2203;53.686;9.994;2023-04-25T08:42:22;20.53;;;2.10;;
4377;SDS011;2203;53.686;9.994;2023-04-25T08:44:48;18.40;;;2.50;;
4377;SDS011;2203;53.686;9.994;2023-04-25T08:47:14;25.97;;;3.20;;
4377;SDS011;2203;53.686;9.994;2023-04-25T08:49:42;17.13;;;3.90;;
4377;SDS011;2203;53.686;9.994;2023-04-25T08:52:11;12.53;;;3.00;;
4377;SDS011;2203;53.686;9.994;2023-04-25T08:54:41;16.10;;;2.47;;
4377;SDS011;2203;53.686;9.994;2023-04-25T08:57:08;19.50;;;2.67;;
4377;SDS011;2203;53.686;9.994;2023-04-25T08:59:33;23.50;;;2.80;;
4377;SDS011;2203;53.686;9.994;2023-04-25T09:01:59;28.67;;;3.27;;
4377;SDS011;2203;53.686;9.994;2023-04-25T09:04:25;20.83;;;3.47;;
4377;SDS011;2203;53.686;9.994;2023-04-25T09:06:50;25.57;;;2.60;;
4377;SDS011;2203;53.686;9.994;2023-04-25T09:09:16;20.27;;;2.50;;
4377;SDS011;2203;53.686;9.994;2023-04-25T09:11:41;10.70;;;2.10;;
4377;SDS011;2203;53.686;9.994;2023-04-25T09:14:25;14.30;;;2.10;;
4377;SDS011;2203;53.686;9.994;2023-04-25T09:19:30;18.67;;;2.60;;
4377;SDS011;2203;53.686;9.994;2023-04-25T09:21:57;12.90;;;2.50;;
4377;SDS011;2203;53.686;9.994;2023-04-25T09:27:02;15.13;;;3.60;;
4377;SDS011;2203;53.686;9.994;2023-04-25T09:29:32;16.83;;;2.87;;
4377;SDS011;2203;53.686;9.994;2023-04-25T09:34:46;17.60;;;2.33;;
4377;SDS011;2203;53.686;9.994;2023-04-25T09:37:19;19.93;;;2.60;;
4377;SDS011;2203;53.686;9.994;2023-04-25T09:39:45;7.97;;;1.90;;
4377;SDS011;2203;53.686;9.994;2023-04-25T09:42:13;15.47;;;2.27;;
4377;SDS011;2203;53.686;9.994;2023-04-25T09:44:44;15.70;;;2.17;;
4377;SDS011;2203;53.686;9.994;2023-04-25T09:47:11;9.03;;;2.23;;
4377;SDS011;2203;53.686;9.994;2023-04-25T09:49:41;9.63;;;2.13;;
4377;SDS011;2203;53.686;9.994;2023-04-25T09:52:07;8.00;;;3.00;;
4377;SDS011;2203;53.686;9.994;2023-04-25T09:54:33;14.60;;;2.90;;
4377;SDS011;2203;53.686;9.994;2023-04-25T09:56:59;13.53;;;2.57;;
4377;SDS011;2203;53.686;9.994;2023-04-25T09:59:38;24.80;;;2.30;;
4377;SDS011;2203;53.686;9.994;2023-04-25T10:02:04;15.13;;;2.07;;
4377;SDS011;2203;53.686;9.994;2023-04-25T10:04:32;17.20;;;2.17;;
4377;SDS011;2203;53.686;9.994;2023-04-25T10:06:59;10.37;;;1.73;;
4377;SDS011;2203;53.686;9.994;2023-04-25T10:09:25;9.40;;;1.73;;
4377;SDS011;2203;53.686;9.994;2023-04-25T10:11:52;5.40;;;1.40;;
4377;SDS011;2203;53.686;9.994;2023-04-25T10:14:19;7.33;;;1.73;;
4377;SDS011;2203;53.686;9.994;2023-04-25T10:16:45;12.57;;;2.27;;
4377;SDS011;2203;53.686;9.994;2023-04-25T10:19:10;13.50;;;2.20;;
4377;SDS011;2203;53.686;9.994;2023-04-25T10:21:36;9.07;;;1.53;;
4377;SDS011;2203;53.686;9.994;2023-04-25T10:24:10;14.70;;;2.10;;
4377;SDS011;2203;53.686;9.994;2023-04-25T10:26:35;8.47;;;2.30;;
4377;SDS011;2203;53.686;9.994;2023-04-25T10:29:01;11.23;;;2.37;;
4377;SDS011;2203;53.686;9.994;2023-04-25T10:31:31;11.60;;;2.07;;
4377;SDS011;2203;53.686;9.994;2023-04-25T10:33:57;6.20;;;1.67;;
4377;SDS011;2203;53.686;9.994;2023-04-25T10:36:23;13.93;;;2.60;;
4377;SDS011;2203;53.686;9.994;2023-04-25T10:38:50;18.80;;;2.50;;
4377;SDS011;2203;53.686;9.994;2023-04-25T10:41:17;16.70;;;2.40;;
4377;SDS011;2203;53.686;9.994;2023-04-25T10:43:44;17.93;;;2.13;;
4377;SDS011;2203;53.686;9.994;2023-04-25T10:48:43;4.20;;;1.50;;
4377;SDS011;2203;53.686;9.994;2023-04-25T10:51:12;7.63;;;1.70;;
4377;SDS011;2203;53.686;9.994;2023-04-25T10:53:47;10.67;;;1.60;;
4377;SDS011;2203;53.686;9.994;2023-04-25T10:56:22;12.00;;;2.03;;
4377;SDS011;2203;53.686;9.994;2023-04-25T10:58:48;18.20;;;3.13;;
4377;SDS011;2203;53.686;9.994;2023-04-25T11:01:14;16.40;;;2.37;;
4377;SDS011;2203;53.686;9.994;2023-04-25T11:03:41;13.83;;;2.23;;
4377;SDS011;2203;53.686;9.994;2023-04-25T11:06:22;6.50;;;1.70;;
4377;SDS011;2203;53.686;9.994;2023-04-25T11:08:49;10.70;;;2.03;;
4377;SDS011;2203;53.686;9.994;2023-04-25T11:11:18;7.20;;;1.40;;
4377;SDS011;2203;53.686;9.994;2023-04-25T11:13:47;4.80;;;1.43;;
4377;SDS011;2203;53.686;9.994;2023-04-25T11:16:13;11.73;;;1.83;;
4377;SDS011;2203;53.686;9.994;2023-04-25T11:18:42;8.67;;;1.10;;
4377;SDS011;2203;53.686;9.994;2023-04-25T11:21:08;15.93;;;5.87;;
4377;SDS011;2203;53.686;9.994;2023-04-25T11:23:34;4.30;;;1.83;;
4377;SDS011;2203;53.686;9.994;2023-04-25T11:26:00;11.10;;;3.10;;
4377;SDS011;2203;53.686;9.994;2023-04-25T11:28:26;10.67;;;1.40;;
4377;SDS011;2203;53.686;9.994;2023-04-25T11:30:51;10.87;;;1.73;;
4377;SDS011;2203;53.686;9.994;2023-04-25T11:33:17;13.10;;;2.33;;
4377;SDS011;2203;53.686;9.994;2023-04-25T11:35:42;10.50;;;2.30;;
4377;SDS011;2203;53.686;9.994;2023-04-25T11:38:08;14.60;;;2.03;;
4377;SDS011;2203;53.686;9.994;2023-04-25T11:40:35;13.50;;;1.93;;
4377;SDS011;2203;53.686;9.994;2023-04-25T11:43:00;18.43;;;2.10;;
4377;SDS011;2203;53.686;9.994;2023-04-25T11:45:26;5.47;;;1.30;;
4377;SDS011;2203;53.686;9.994;2023-04-25T11:47:52;10.33;;;1.20;;
4377;SDS011;2203;53.686;9.994;2023-04-25T11:50:18;12.97;;;1.73;;
4377;SDS011;2203;53.686;9.994;2023-04-25T11:52:44;6.53;;;1.33;;
4377;SDS011;2203;53.686;9.994;2023-04-25T11:55:14;9.43;;;1.50;;
4377;SDS011;2203;53.686;9.994;2023-04-25T11:57:41;4.50;;;1.50;;
4377;SDS011;2203;53.686;9.994;2023-04-25T12:00:11;9.37;;;1.33;;
4377;SDS011;2203;53.686;9.994;2023-04-25T12:02:42;11.70;;;1.30;;
4377;SDS011;2203;53.686;9.994;2023-04-25T12:05:08;8.07;;;1.17;;
4377;SDS011;2203;53.686;9.994;2023-04-25T12:07:35;8.23;;;1.77;;
4377;SDS011;2203;53.686;9.994;2023-04-25T12:10:20;7.80;;;1.60;;
4377;SDS011;2203;53.686;9.994;2023-04-25T12:12:46;9.13;;;1.40;;
4377;SDS011;2203;53.686;9.994;2023-04-25T12:17:40;8.90;;;1.60;;
4377;SDS011;2203;53.686;9.994;2023-04-25T12:20:10;8.80;;;1.40;;
4377;SDS011;2203;53.686;9.994;2023-04-25T12:22:40;15.60;;;1.97;;
4377;SDS011;2203;53.686;9.994;2023-04-25T12:25:10;12.90;;;1.97;;
4377;SDS011;2203;53.686;9.994;2023-04-25T12:27:38;8.90;;;1.67;;
4377;SDS011;2203;53.686;9.994;2023-04-25T12:30:09;19.63;;;1.77;;
4377;SDS011;2203;53.686;9.994;2023-04-25T12:32:35;10.77;;;1.77;;
4377;SDS011;2203;53.686;9.994;2023-04-25T12:35:01;8.97;;;1.53;;
4377;SDS011;2203;53.686;9.994;2023-04-25T12:37:28;12.80;;;1.93;;
4377;SDS011;2203;53.686;9.994;2023-04-25T12:39:53;10.70;;;1.97;;
4377;SDS011;2203;53.686;9.994;2023-04-25T12:42:19;12.33;;;1.90;;
4377;SDS011;2203;53.686;9.994;2023-04-25T12:44:44;13.87;;;1.90;;
4377;SDS011;2203;53.686;9.994;2023-04-25T12:47:11;8.40;;;2.00;;
4377;SDS011;2203;53.686;9.994;2023-04-25T12:49:36;10.00;;;1.57;;
4377;SDS011;2203;53.686;9.994;2023-04-25T12:52:02;11.70;;;1.80;;
4377;SDS011;2203;53.686;9.994;2023-04-25T12:54:27;10.83;;;1.77;;
4377;SDS011;2203;53.686;9.994;2023-04-25T12:56:52;12.27;;;2.03;;
4377;SDS011;2203;53.686;9.994;2023-04-25T12:59:18;13.50;;;1.90;;
4377;SDS011;2203;53.686;9.994;2023-04-25T13:01:45;9.13;;;1.90;;
4377;SDS011;2203;53.686;9.994;2023-04-25T13:04:10;10.03;;;2.07;;
4377;SDS011;2203;53.686;9.994;2023-04-25T13:06:35;19.07;;;3.40;;
4377;SDS011;2203;53.686;9.994;2023-04-25T13:09:01;8.57;;;1.83;;
4377;SDS011;2203;53.686;9.994;2023-04-25T13:11:26;5.87;;;1.47;;
4377;SDS011;2203;53.686;9.994;2023-04-25T13:13:52;8.57;;;1.77;;
4377;SDS011;2203;53.686;9.994;2023-04-25T13:16:17;8.57;;;2.27;;
4377;SDS011;2203;53.686;9.994;2023-04-25T13:18:45;12.03;;;2.10;;
4377;SDS011;2203;53.686;9.994;2023-04-25T13:21:11;11.70;;;2.80;;
4377;SDS011;2203;53.686;9.994;2023-04-25T13:23:36;13.43;;;2.50;;
4377;SDS011;2203;53.686;9.994;2023-04-25T13:26:02;14.03;;;1.83;;
4377;SDS011;2203;53.686;9.994;2023-04-25T13:28:27;16.93;;;3.60;;
4377;SDS011;2203;53.686;9.994;2023-04-25T13:30:53;12.33;;;2.10;;
4377;SDS011;2203;53.686;9.994;2023-04-25T13:33:19;15.20;;;2.37;;
4377;SDS011;2203;53.686;9.994;2023-04-25T13:35:45;15.90;;;2.97;;
4377;SDS011;2203;53.686;9.994;2023-04-25T13:38:14;18.00;;;3.37;;
4377;SDS011;2203;53.686;9.994;2023-04-25T13:40:40;8.73;;;2.03;;
4377;SDS011;2203;53.686;9.994;2023-04-25T13:43:05;18.53;;;2.60;;
4377;SDS011;2203;53.686;9.994;2023-04-25T13:45:31;13.07;;;2.90;;
4377;SDS011;2203;53.686;9.994;2023-04-25T13:47:57;15.60;;;2.50;;
4377;SDS011;2203;53.686;9.994;2023-04-25T13:50:22;26.63;;;3.30;;
4377;SDS011;2203;53.686;9.994;2023-04-25T13:52:48;13.40;;;2.57;;
4377;SDS011;2203;53.686;9.994;2023-04-25T13:55:13;11.07;;;1.60;;
4377;SDS011;2203;53.686;9.994;2023-04-25T13:57:39;12.80;;;1.73;;
4377;SDS011;2203;53.686;9.994;2023-04-25T14:00:05;11.30;;;1.80;;
4377;SDS011;2203;53.686;9.994;2023-04-25T14:02:34;14.33;;;2.70;;
4377;SDS011;2203;53.686;9.994;2023-04-25T14:05:00;9.30;;;1.80;;
4377;SDS011;2203;53.686;9.994;2023-04-25T14:07:26;7.83;;;1.87;;
4377;SDS011;2203;53.686;9.994;2023-04-25T14:09:51;8.70;;;1.60;;
4377;SDS011;2203;53.686;9.994;2023-04-25T14:12:17;5.53;;;1.33;;
4377;SDS011;2203;53.686;9.994;2023-04-25T14:14:42;7.70;;;1.30;;
4377;SDS011;2203;53.686;9.994;2023-04-25T14:17:08;14.03;;;1.70;;
4377;SDS011;2203;53.686;9.994;2023-04-25T14:19:34;7.83;;;1.67;;
4377;SDS011;2203;53.686;9.994;2023-04-25T14:21:59;7.30;;;1.37;;
4377;SDS011;2203;53.686;9.994;2023-04-25T14:24:24;4.93;;;1.20;;
4377;SDS011;2203;53.686;9.994;2023-04-25T14:26:50;10.73;;;1.57;;
4377;SDS011;2203;53.686;9.994;2023-04-25T14:29:15;11.53;;;1.80;;
4377;SDS011;2203;53.686;9.994;2023-04-25T14:31:41;12.87;;;2.07;;
4377;SDS011;2203;53.686;9.994;2023-04-25T14:34:06;9.30;;;1.97;;
4377;SDS011;2203;53.686;9.994;2023-04-25T14:36:33;13.17;;;2.00;;
4377;SDS011;2203;53.686;9.994;2023-04-25T14:38:59;10.00;;;1.80;;
4377;SDS011;2203;53.686;9.994;2023-04-25T14:41:24;11.57;;;1.90;;
4377;SDS011;2203;53.686;9.994;2023-04-25T14:43:51;7.97;;;1.70;;
4377;SDS011;2203;53.686;9.994;2023-04-25T14:46:17;7.93;;;1.80;;
4377;SDS011;2203;53.686;9.994;2023-04-25T14:48:43;16.23;;;2.37;;
4377;SDS011;2203;53.686;9.994;2023-04-25T14:51:09;11.23;;;2.03;;
4377;SDS011;2203;53.686;9.994;2023-04-25T14:53:35;11.70;;;1.70;;
4377;SDS011;2203;53.686;9.994;2023-04-25T14:56:01;11.70;;;2.13;;
4377;SDS011;2203;53.686;9.994;2023-04-25T14:58:26;11.57;;;2.97;;
4377;SDS011;2203;53.686;9.994;2023-04-25T15:00:52;9.83;;;1.67;;
4377;SDS011;2203;53.686;9.994;2023-04-25T15:03:17;5.83;;;1.47;;
4377;SDS011;2203;53.686;9.994;2023-04-25T15:05:43;4.97;;;1.20;;
4377;SDS011;2203;53.686;9.994;2023-04-25T15:08:08;3.60;;;1.17;;
4377;SDS011;2203;53.686;9.994;2023-04-25T15:10:35;7.73;;;1.10;;